sensor_id;sensor_type;location;lat;lon;timestamp;P1;durP1;ratioP1;P2;durP2;ratioP2
16159;SDS011;8185;57.818;15.224;2023-08-30T00:01:34;4.37;;;1.93;;
16159;SDS011;8185;57.818;15.224;2023-08-30T00:04:01;4.70;;;1.90;;
16159;SDS011;8185;57.818;15.224;2023-08-30T00:06:30;2.97;;;1.80;;
16159;SDS011;8185;57.818;15.224;2023-08-30T00:08:58;4.20;;;1.60;;
16159;SDS011;8185;57.818;15.224;2023-08-30T00:11:25;3.00;;;1.90;;
16159;SDS011;8185;57.818;15.224;2023-08-30T00:14:02;3.70;;;1.50;;
16159;SDS011;8185;57.818;15.224;2023-08-30T00:16:30;4.40;;;1.60;;
16159;SDS011;8185;57.818;15.224;2023-08-30T00:18:58;2.40;;;1.60;;
16159;SDS011;8185;57.818;15.224;2023-08-30T00:21:26;6.37;;;1.67;;
16159;SDS011;8185;57.818;15.224;2023-08-30T00:23:53;1.57;;;1.43;;
16159;SDS011;8185;57.818;15.224;2023-08-30T00:26:21;1.97;;;1.27;;
16159;SDS011;8185;57.818;15.224;2023-08-30T00:28:48;6.73;;;2.13;;
16159;SDS011;8185;57.818;15.224;2023-08-30T00:31:17;3.57;;;1.73;;
16159;SDS011;8185;57.818;15.224;2023-08-30T00:33:44;1.80;;;1.50;;
16159;SDS011;8185;57.818;15.224;2023-08-30T00:36:12;3.37;;;1.40;;
16159;SDS011;8185;57.818;15.224;2023-08-30T00:38:39;1.87;;;1.63;;
16159;SDS011;8185;57.818;15.224;2023-08-30T00:41:07;3.40;;;1.60;;
16159;SDS011;8185;57.818;15.224;2023-08-30T00:43:34;4.17;;;1.60;;
16159;SDS011;8185;57.818;15.224;2023-08-30T00:46:02;5.40;;;2.00;;
16159;SDS011;8185;57.818;15.224;2023-08-30T00:48:30;6.40;;;2.20;;
16159;SDS011;8185;57.818;15.224;2023-08-30T00:50:58;6.87;;;1.70;;
16159;SDS011;8185;57.818;15.224;2023-08-30T00:53:25;1.70;;;1.60;;
16159;SDS011;8185;57.818;15.224;2023-08-30T00:55:53;6.23;;;2.00;;
16159;SDS011;8185;57.818;15.224;2023-08-30T00:58:20;2.97;;;1.77;;
16159;SDS011;8185;57.818;15.224;2023-08-30T01:00:48;1.47;;;1.30;;
16159;SDS011;8185;57.818;15.224;2023-08-30T01:03:16;3.37;;;1.70;;
16159;SDS011;8185;57.818;15.224;2023-08-30T01:05:44;1.87;;;1.63;;
16159;SDS011;8185;57.818;15.224;2023-08-30T01:08:12;2.37;;;1.90;;
16159;SDS011;8185;57.818;15.224;2023-08-30T01:10:47;2.27;;;1.67;;
16159;SDS011;8185;57.818;15.224;2023-08-30T01:13:18;4.93;;;1.60;;
16159;SDS011;8185;57.818;15.224;2023-08-30T01:15:47;5.30;;;1.50;;
16159;SDS011;8185;57.818;15.224;2023-08-30T01:18:16;4.50;;;1.93;;
16159;SDS011;8185;57.818;15.224;2023-08-30T01:20:46;4.03;;;1.57;;
16159;SDS011;8185;57.818;15.224;2023-08-30T01:23:17;8.73;;;1.80;;
16159;SDS011;8185;57.818;15.224;2023-08-30T01:25:49;4.80;;;1.80;;
16159;SDS011;8185;57.818;15.224;2023-08-30T01:28:22;3.20;;;2.00;;
16159;SDS011;8185;57.818;15.224;2023-08-30T01:30:50;3.63;;;1.77;;
16159;SDS011;8185;57.818;15.224;2023-08-30T01:33:19;7.40;;;1.87;;
16159;SDS011;8185;57.818;15.224;2023-08-30T01:35:48;9.40;;;2.33;;
16159;SDS011;8185;57.818;15.224;2023-08-30T01:38:15;2.60;;;2.00;;
16159;SDS011;8185;57.818;15.224;2023-08-30T01:40:43;3.13;;;1.70;;
16159;SDS011;8185;57.818;15.224;2023-08-30T01:43:13;5.23;;;1.63;;
16159;SDS011;8185;57.818;15.224;2023-08-30T01:45:43;6.60;;;1.53;;
16159;SDS011;8185;57.818;15.224;2023-08-30T01:48:11;4.07;;;1.90;;
16159;SDS011;8185;57.818;15.224;2023-08-30T01:50:40;2.40;;;1.80;;
16159;SDS011;8185;57.818;15.224;2023-08-30T01:53:08;5.57;;;2.40;;
16159;SDS011;8185;57.818;15.224;2023-08-30T01:55:36;1.97;;;1.77;;
16159;SDS011;8185;57.818;15.224;2023-08-30T01:58:04;4.03;;;2.10;;
16159;SDS011;8185;57.818;15.224;2023-08-30T02:00:31;4.10;;;1.83;;
16159;SDS011;8185;57.818;15.224;2023-08-30T02:03:02;4.50;;;2.00;;
16159;SDS011;8185;57.818;15.224;2023-08-30T02:05:33;5.70;;;1.77;;
16159;SDS011;8185;57.818;15.224;2023-08-30T02:08:05;3.33;;;1.70;;
16159;SDS011;8185;57.818;15.224;2023-08-30T02:10:35;3.03;;;1.30;;
16159;SDS011;8185;57.818;15.224;2023-08-30T02:13:05;2.97;;;1.60;;
16159;SDS011;8185;57.818;15.224;2023-08-30T02:15:33;5.43;;;2.03;;
16159;SDS011;8185;57.818;15.224;2023-08-30T02:18:02;4.13;;;1.60;;
16159;SDS011;8185;57.818;15.224;2023-08-30T02:20:30;3.00;;;1.67;;
16159;SDS011;8185;57.818;15.224;2023-08-30T02:22:58;1.90;;;1.67;;
16159;SDS011;8185;57.818;15.224;2023-08-30T02:25:26;2.43;;;1.70;;
16159;SDS011;8185;57.818;15.224;2023-08-30T02:27:54;2.23;;;1.83;;
16159;SDS011;8185;57.818;15.224;2023-08-30T02:30:22;4.27;;;1.47;;
16159;SDS011;8185;57.818;15.224;2023-08-30T02:32:49;5.93;;;1.90;;
16159;SDS011;8185;57.818;15.224;2023-08-30T02:35:18;4.90;;;2.03;;
16159;SDS011;8185;57.818;15.224;2023-08-30T02:37:45;7.60;;;2.00;;
16159;SDS011;8185;57.818;15.224;2023-08-30T02:40:13;2.80;;;2.10;;
16159;SDS011;8185;57.818;15.224;2023-08-30T02:42:40;2.10;;;1.67;;
16159;SDS011;8185;57.818;15.224;2023-08-30T02:45:08;5.10;;;2.27;;
16159;SDS011;8185;57.818;15.224;2023-08-30T02:47:36;4.33;;;2.13;;
16159;SDS011;8185;57.818;15.224;2023-08-30T02:50:03;6.87;;;1.90;;
16159;SDS011;8185;57.818;15.224;2023-08-30T02:52:32;3.53;;;1.70;;
16159;SDS011;8185;57.818;15.224;2023-08-30T02:55:00;2.87;;;1.83;;
16159;SDS011;8185;57.818;15.224;2023-08-30T02:57:27;6.53;;;1.90;;
16159;SDS011;8185;57.818;15.224;2023-08-30T02:59:55;4.40;;;1.50;;
16159;SDS011;8185;57.818;15.224;2023-08-30T03:02:22;2.93;;;1.63;;
16159;SDS011;8185;57.818;15.224;2023-08-30T03:04:50;2.90;;;2.17;;
16159;SDS011;8185;57.818;15.224;2023-08-30T03:07:18;6.10;;;2.17;;
16159;SDS011;8185;57.818;15.224;2023-08-30T03:09:51;6.33;;;2.33;;
16159;SDS011;8185;57.818;15.224;2023-08-30T03:12:18;2.30;;;1.63;;
16159;SDS011;8185;57.818;15.224;2023-08-30T03:14:46;5.10;;;2.20;;
16159;SDS011;8185;57.818;15.224;2023-08-30T03:17:13;8.23;;;2.63;;
16159;SDS011;8185;57.818;15.224;2023-08-30T03:19:41;4.23;;;1.60;;
16159;SDS011;8185;57.818;15.224;2023-08-30T03:22:08;2.97;;;1.80;;
16159;SDS011;8185;57.818;15.224;2023-08-30T03:24:36;1.70;;;1.60;;
16159;SDS011;8185;57.818;15.224;2023-08-30T03:27:05;1.80;;;1.50;;
16159;SDS011;8185;57.818;15.224;2023-08-30T03:29:32;2.60;;;1.50;;
16159;SDS011;8185;57.818;15.224;2023-08-30T03:31:59;3.37;;;1.70;;
16159;SDS011;8185;57.818;15.224;2023-08-30T03:34:27;4.47;;;2.40;;
16159;SDS011;8185;57.818;15.224;2023-08-30T03:36:54;3.17;;;1.67;;
16159;SDS011;8185;57.818;15.224;2023-08-30T03:39:22;4.47;;;2.00;;
16159;SDS011;8185;57.818;15.224;2023-08-30T03:41:49;3.57;;;1.90;;
16159;SDS011;8185;57.818;15.224;2023-08-30T03:44:18;4.27;;;2.07;;
16159;SDS011;8185;57.818;15.224;2023-08-30T03:46:46;4.40;;;2.00;;
16159;SDS011;8185;57.818;15.224;2023-08-30T03:49:13;1.93;;;1.67;;
16159;SDS011;8185;57.818;15.224;2023-08-30T03:51:40;5.27;;;2.00;;
16159;SDS011;8185;57.818;15.224;2023-08-30T03:54:08;3.77;;;1.60;;
16159;SDS011;8185;57.818;15.224;2023-08-30T03:56:41;2.83;;;1.70;;
16159;SDS011;8185;57.818;15.224;2023-08-30T03:59:08;2.60;;;1.40;;
16159;SDS011;8185;57.818;15.224;2023-08-30T04:01:37;4.63;;;2.03;;
16159;SDS011;8185;57.818;15.224;2023-08-30T04:04:05;3.37;;;1.80;;
16159;SDS011;8185;57.818;15.224;2023-08-30T04:06:32;3.87;;;2.00;;
16159;SDS011;8185;57.818;15.224;2023-08-30T04:08:59;5.23;;;2.07;;
16159;SDS011;8185;57.818;15.224;2023-08-30T04:11:27;4.23;;;2.03;;
16159;SDS011;8185;57.818;15.224;2023-08-30T04:13:54;7.43;;;2.30;;
16159;SDS011;8185;57.818;15.224;2023-08-30T04:16:21;6.60;;;2.50;;
16159;SDS011;8185;57.818;15.224;2023-08-30T04:18:50;4.43;;;2.13;;
16159;SDS011;8185;57.818;15.224;2023-08-30T04:21:18;2.37;;;2.03;;
16159;SDS011;8185;57.818;15.224;2023-08-30T04:23:45;4.80;;;2.20;;
16159;SDS011;8185;57.818;15.224;2023-08-30T04:26:13;6.50;;;2.80;;
16159;SDS011;8185;57.818;15.224;2023-08-30T04:28:40;4.17;;;2.23;;
16159;SDS011;8185;57.818;15.224;2023-08-30T04:31:07;7.33;;;2.20;;
16159;SDS011;8185;57.818;15.224;2023-08-30T04:33:35;3.50;;;1.90;;
16159;SDS011;8185;57.818;15.224;2023-08-30T04:36:04;4.37;;;1.93;;
16159;SDS011;8185;57.818;15.224;2023-08-30T04:38:31;7.00;;;2.77;;
16159;SDS011;8185;57.818;15.224;2023-08-30T04:40:59;6.50;;;2.27;;
16159;SDS011;8185;57.818;15.224;2023-08-30T04:43:26;4.70;;;2.03;;
16159;SDS011;8185;57.818;15.224;2023-08-30T04:45:53;3.33;;;2.30;;
16159;SDS011;8185;57.818;15.224;2023-08-30T04:48:21;3.37;;;2.47;;
16159;SDS011;8185;57.818;15.224;2023-08-30T04:50:57;3.77;;;2.37;;
16159;SDS011;8185;57.818;15.224;2023-08-30T04:53:26;2.60;;;2.00;;
16159;SDS011;8185;57.818;15.224;2023-08-30T04:55:53;2.63;;;2.00;;
16159;SDS011;8185;57.818;15.224;2023-08-30T04:58:21;4.87;;;2.00;;
16159;SDS011;8185;57.818;15.224;2023-08-30T05:00:48;3.03;;;2.10;;
16159;SDS011;8185;57.818;15.224;2023-08-30T05:03:15;4.43;;;2.00;;
16159;SDS011;8185;57.818;15.224;2023-08-30T05:05:44;2.80;;;2.30;;
16159;SDS011;8185;57.818;15.224;2023-08-30T05:08:12;8.57;;;2.20;;
16159;SDS011;8185;57.818;15.224;2023-08-30T05:10:41;3.33;;;2.10;;
16159;SDS011;8185;57.818;15.224;2023-08-30T05:13:09;3.90;;;2.10;;
16159;SDS011;8185;57.818;15.224;2023-08-30T05:15:36;4.23;;;2.10;;
16159;SDS011;8185;57.818;15.224;2023-08-30T05:18:04;2.73;;;2.07;;
16159;SDS011;8185;57.818;15.224;2023-08-30T05:20:31;4.03;;;2.10;;
16159;SDS011;8185;57.818;15.224;2023-08-30T05:22:59;3.03;;;2.00;;
16159;SDS011;8185;57.818;15.224;2023-08-30T05:25:26;5.10;;;2.40;;
16159;SDS011;8185;57.818;15.224;2023-08-30T05:27:55;7.63;;;2.10;;
16159;SDS011;8185;57.818;15.224;2023-08-30T05:30:23;2.90;;;1.77;;
16159;SDS011;8185;57.818;15.224;2023-08-30T05:32:50;4.67;;;2.10;;
16159;SDS011;8185;57.818;15.224;2023-08-30T05:35:18;6.33;;;2.40;;
16159;SDS011;8185;57.818;15.224;2023-08-30T05:37:46;4.47;;;2.00;;
16159;SDS011;8185;57.818;15.224;2023-08-30T05:40:13;3.77;;;2.10;;
16159;SDS011;8185;57.818;15.224;2023-08-30T05:42:42;5.60;;;2.17;;
16159;SDS011;8185;57.818;15.224;2023-08-30T05:45:12;11.43;;;3.53;;
16159;SDS011;8185;57.818;15.224;2023-08-30T05:47:39;4.47;;;2.07;;
16159;SDS011;8185;57.818;15.224;2023-08-30T05:50:07;4.77;;;2.67;;
16159;SDS011;8185;57.818;15.224;2023-08-30T05:52:35;7.50;;;2.57;;
16159;SDS011;8185;57.818;15.224;2023-08-30T05:55:06;4.77;;;1.80;;
16159;SDS011;8185;57.818;15.224;2023-08-30T05:57:34;2.73;;;2.00;;
16159;SDS011;8185;57.818;15.224;2023-08-30T06:00:02;4.70;;;1.70;;
16159;SDS011;8185;57.818;15.224;2023-08-30T06:02:31;5.63;;;2.00;;
16159;SDS011;8185;57.818;15.224;2023-08-30T06:04:59;2.20;;;1.70;;
16159;SDS011;8185;57.818;15.224;2023-08-30T06:07:27;5.50;;;1.70;;
16159;SDS011;8185;57.818;15.224;2023-08-30T06:09:55;1.70;;;1.50;;
16159;SDS011;8185;57.818;15.224;2023-08-30T06:12:23;2.70;;;1.90;;
16159;SDS011;8185;57.818;15.224;2023-08-30T06:14:51;4.77;;;1.93;;
16159;SDS011;8185;57.818;15.224;2023-08-30T06:17:18;1.87;;;1.40;;
16159;SDS011;8185;57.818;15.224;2023-08-30T06:19:47;5.43;;;1.57;;
16159;SDS011;8185;57.818;15.224;2023-08-30T06:22:15;5.03;;;1.60;;
16159;SDS011;8185;57.818;15.224;2023-08-30T06:24:43;2.43;;;1.47;;
16159;SDS011;8185;57.818;15.224;2023-08-30T06:27:10;3.73;;;1.30;;
16159;SDS011;8185;57.818;15.224;2023-08-30T06:29:37;1.77;;;1.20;;
16159;SDS011;8185;57.818;15.224;2023-08-30T06:32:05;5.77;;;1.43;;
16159;SDS011;8185;57.818;15.224;2023-08-30T06:34:33;3.20;;;1.60;;
16159;SDS011;8185;57.818;15.224;2023-08-30T06:37:02;5.90;;;2.00;;
16159;SDS011;8185;57.818;15.224;2023-08-30T06:39:32;2.83;;;1.40;;
16159;SDS011;8185;57.818;15.224;2023-08-30T06:42:00;4.00;;;1.40;;
16159;SDS011;8185;57.818;15.224;2023-08-30T06:44:28;2.87;;;1.10;;
16159;SDS011;8185;57.818;15.224;2023-08-30T06:46:56;4.30;;;1.47;;
16159;SDS011;8185;57.818;15.224;2023-08-30T06:49:23;1.53;;;1.00;;
16159;SDS011;8185;57.818;15.224;2023-08-30T06:51:50;4.57;;;1.40;;
16159;SDS011;8185;57.818;15.224;2023-08-30T06:54:19;1.47;;;1.10;;
16159;SDS011;8185;57.818;15.224;2023-08-30T06:56:56;3.20;;;1.23;;
16159;SDS011;8185;57.818;15.224;2023-08-30T06:59:24;2.17;;;1.10;;
16159;SDS011;8185;57.818;15.224;2023-08-30T07:01:52;3.30;;;1.20;;
16159;SDS011;8185;57.818;15.224;2023-08-30T07:04:19;4.47;;;1.20;;
16159;SDS011;8185;57.818;15.224;2023-08-30T07:06:47;1.53;;;1.20;;
16159;SDS011;8185;57.818;15.224;2023-08-30T07:09:14;1.83;;;1.10;;
16159;SDS011;8185;57.818;15.224;2023-08-30T07:11:43;3.37;;;1.13;;
16159;SDS011;8185;57.818;15.224;2023-08-30T07:14:11;1.93;;;0.90;;
16159;SDS011;8185;57.818;15.224;2023-08-30T07:16:39;3.80;;;1.20;;
16159;SDS011;8185;57.818;15.224;2023-08-30T07:19:07;4.07;;;1.03;;
16159;SDS011;8185;57.818;15.224;2023-08-30T07:21:35;2.23;;;1.10;;
16159;SDS011;8185;57.818;15.224;2023-08-30T07:24:04;3.80;;;1.17;;
16159;SDS011;8185;57.818;15.224;2023-08-30T07:26:33;2.20;;;0.83;;
16159;SDS011;8185;57.818;15.224;2023-08-30T07:29:01;2.53;;;0.90;;
16159;SDS011;8185;57.818;15.224;2023-08-30T07:31:30;2.23;;;1.17;;
16159;SDS011;8185;57.818;15.224;2023-08-30T07:33:57;1.07;;;0.90;;
16159;SDS011;8185;57.818;15.224;2023-08-30T07:36:25;3.03;;;1.30;;
16159;SDS011;8185;57.818;15.224;2023-08-30T07:38:53;2.00;;;1.00;;
16159;SDS011;8185;57.818;15.224;2023-08-30T07:41:20;3.93;;;1.17;;
16159;SDS011;8185;57.818;15.224;2023-08-30T07:43:47;3.20;;;1.17;;
16159;SDS011;8185;57.818;15.224;2023-08-30T07:46:16;7.83;;;1.33;;
16159;SDS011;8185;57.818;15.224;2023-08-30T07:48:44;2.90;;;1.00;;
16159;SDS011;8185;57.818;15.224;2023-08-30T07:51:11;4.03;;;1.43;;
16159;SDS011;8185;57.818;15.224;2023-08-30T07:53:38;2.57;;;1.10;;
16159;SDS011;8185;57.818;15.224;2023-08-30T07:56:06;2.23;;;1.10;;
16159;SDS011;8185;57.818;15.224;2023-08-30T07:58:33;4.03;;;1.23;;
16159;SDS011;8185;57.818;15.224;2023-08-30T08:01:02;4.63;;;0.90;;
16159;SDS011;8185;57.818;15.224;2023-08-30T08:03:31;3.10;;;1.13;;
16159;SDS011;8185;57.818;15.224;2023-08-30T08:05:58;2.67;;;1.13;;
16159;SDS011;8185;57.818;15.224;2023-08-30T08:08:26;3.33;;;1.20;;
16159;SDS011;8185;57.818;15.224;2023-08-30T08:10:53;2.33;;;1.00;;
16159;SDS011;8185;57.818;15.224;2023-08-30T08:13:20;4.00;;;1.20;;
16159;SDS011;8185;57.818;15.224;2023-08-30T08:15:48;3.03;;;1.10;;
16159;SDS011;8185;57.818;15.224;2023-08-30T08:18:15;2.87;;;0.97;;
16159;SDS011;8185;57.818;15.224;2023-08-30T08:20:43;2.97;;;1.40;;
16159;SDS011;8185;57.818;15.224;2023-08-30T08:23:11;3.20;;;1.10;;
16159;SDS011;8185;57.818;15.224;2023-08-30T08:25:38;4.40;;;1.13;;
16159;SDS011;8185;57.818;15.224;2023-08-30T08:28:05;2.00;;;0.97;;
16159;SDS011;8185;57.818;15.224;2023-08-30T08:30:32;2.50;;;1.00;;
16159;SDS011;8185;57.818;15.224;2023-08-30T08:33:00;2.43;;;1.07;;
16159;SDS011;8185;57.818;15.224;2023-08-30T08:35:27;2.13;;;1.10;;
16159;SDS011;8185;57.818;15.224;2023-08-30T08:37:56;2.93;;;0.90;;
16159;SDS011;8185;57.818;15.224;2023-08-30T08:40:23;2.93;;;1.13;;
16159;SDS011;8185;57.818;15.224;2023-08-30T08:42:51;4.67;;;1.10;;
16159;SDS011;8185;57.818;15.224;2023-08-30T08:45:21;2.97;;;1.23;;
16159;SDS011;8185;57.818;15.224;2023-08-30T08:47:49;1.93;;;1.00;;
16159;SDS011;8185;57.818;15.224;2023-08-30T08:50:17;3.00;;;1.10;;
16159;SDS011;8185;57.818;15.224;2023-08-30T08:52:45;1.37;;;1.03;;
16159;SDS011;8185;57.818;15.224;2023-08-30T08:55:14;2.80;;;1.20;;
16159;SDS011;8185;57.818;15.224;2023-08-30T08:57:42;2.43;;;1.17;;
16159;SDS011;8185;57.818;15.224;2023-08-30T09:00:11;4.17;;;1.53;;
16159;SDS011;8185;57.818;15.224;2023-08-30T09:02:39;3.10;;;1.00;;
16159;SDS011;8185;57.818;15.224;2023-08-30T09:05:08;2.37;;;1.40;;
16159;SDS011;8185;57.818;15.224;2023-08-30T09:07:36;2.13;;;0.93;;
16159;SDS011;8185;57.818;15.224;2023-08-30T09:10:04;2.67;;;0.87;;
16159;SDS011;8185;57.818;15.224;2023-08-30T09:12:33;3.50;;;1.60;;
16159;SDS011;8185;57.818;15.224;2023-08-30T09:15:02;2.30;;;1.10;;
16159;SDS011;8185;57.818;15.224;2023-08-30T09:17:36;3.13;;;1.17;;
16159;SDS011;8185;57.818;15.224;2023-08-30T09:20:07;2.80;;;1.10;;
16159;SDS011;8185;57.818;15.224;2023-08-30T09:22:35;3.43;;;1.23;;
16159;SDS011;8185;57.818;15.224;2023-08-30T09:25:03;4.60;;;1.40;;
16159;SDS011;8185;57.818;15.224;2023-08-30T09:27:32;6.93;;;1.30;;
16159;SDS011;8185;57.818;15.224;2023-08-30T09:30:01;2.37;;;1.30;;
16159;SDS011;8185;57.818;15.224;2023-08-30T09:32:30;3.50;;;1.10;;
16159;SDS011;8185;57.818;15.224;2023-08-30T09:34:58;1.63;;;1.00;;
16159;SDS011;8185;57.818;15.224;2023-08-30T09:37:25;6.03;;;1.35;;
16159;SDS011;8185;57.818;15.224;2023-08-30T09:39:52;3.40;;;1.33;;
16159;SDS011;8185;57.818;15.224;2023-08-30T09:42:19;1.63;;;1.10;;
16159;SDS011;8185;57.818;15.224;2023-08-30T09:44:48;3.10;;;1.30;;
16159;SDS011;8185;57.818;15.224;2023-08-30T09:47:16;2.47;;;1.10;;
16159;SDS011;8185;57.818;15.224;2023-08-30T09:49:44;4.10;;;1.20;;
16159;SDS011;8185;57.818;15.224;2023-08-30T09:52:12;2.03;;;1.00;;
16159;SDS011;8185;57.818;15.224;2023-08-30T09:54:42;2.77;;;1.07;;
16159;SDS011;8185;57.818;15.224;2023-08-30T09:57:10;2.05;;;1.10;;
16159;SDS011;8185;57.818;15.224;2023-08-30T09:59:37;2.10;;;1.33;;
16159;SDS011;8185;57.818;15.224;2023-08-30T10:02:08;2.72;;;1.13;;
16159;SDS011;8185;57.818;15.224;2023-08-30T10:04:37;1.80;;;1.00;;
16159;SDS011;8185;57.818;15.224;2023-08-30T10:07:06;1.90;;;0.98;;
16159;SDS011;8185;57.818;15.224;2023-08-30T10:09:34;3.85;;;1.25;;
16159;SDS011;8185;57.818;15.224;2023-08-30T10:12:04;3.37;;;1.10;;
16159;SDS011;8185;57.818;15.224;2023-08-30T10:14:32;1.93;;;1.10;;
16159;SDS011;8185;57.818;15.224;2023-08-30T10:17:00;2.10;;;1.27;;
16159;SDS011;8185;57.818;15.224;2023-08-30T10:19:31;2.77;;;1.50;;
16159;SDS011;8185;57.818;15.224;2023-08-30T10:22:00;4.67;;;1.47;;
16159;SDS011;8185;57.818;15.224;2023-08-30T10:24:30;2.20;;;1.03;;
16159;SDS011;8185;57.818;15.224;2023-08-30T10:27:01;1.77;;;1.00;;
16159;SDS011;8185;57.818;15.224;2023-08-30T10:29:32;5.90;;;1.30;;
16159;SDS011;8185;57.818;15.224;2023-08-30T10:32:02;2.17;;;0.90;;
16159;SDS011;8185;57.818;15.224;2023-08-30T10:34:33;2.33;;;1.13;;
16159;SDS011;8185;57.818;15.224;2023-08-30T10:37:01;2.10;;;1.10;;
16159;SDS011;8185;57.818;15.224;2023-08-30T10:39:34;3.42;;;1.13;;
16159;SDS011;8185;57.818;15.224;2023-08-30T10:42:07;2.90;;;0.93;;
16159;SDS011;8185;57.818;15.224;2023-08-30T10:44:46;1.95;;;0.90;;
16159;SDS011;8185;57.818;15.224;2023-08-30T10:47:18;5.03;;;1.17;;
16159;SDS011;8185;57.818;15.224;2023-08-30T10:49:48;3.83;;;1.35;;
16159;SDS011;8185;57.818;15.224;2023-08-30T10:52:16;1.58;;;0.95;;
16159;SDS011;8185;57.818;15.224;2023-08-30T10:54:43;1.80;;;1.08;;
16159;SDS011;8185;57.818;15.224;2023-08-30T10:57:13;2.88;;;1.00;;
16159;SDS011;8185;57.818;15.224;2023-08-30T10:59:47;5.40;;;1.48;;
16159;SDS011;8185;57.818;15.224;2023-08-30T11:02:33;5.75;;;1.45;;
16159;SDS011;8185;57.818;15.224;2023-08-30T11:05:01;3.03;;;1.25;;
16159;SDS011;8185;57.818;15.224;2023-08-30T11:07:30;2.28;;;0.90;;
16159;SDS011;8185;57.818;15.224;2023-08-30T11:09:57;4.38;;;1.20;;
16159;SDS011;8185;57.818;15.224;2023-08-30T11:12:25;4.85;;;1.30;;
16159;SDS011;8185;57.818;15.224;2023-08-30T11:14:55;4.25;;;1.45;;
16159;SDS011;8185;57.818;15.224;2023-08-30T11:17:22;2.00;;;1.00;;
16159;SDS011;8185;57.818;15.224;2023-08-30T11:19:50;2.60;;;1.10;;
16159;SDS011;8185;57.818;15.224;2023-08-30T11:22:19;1.90;;;1.10;;
16159;SDS011;8185;57.818;15.224;2023-08-30T11:24:47;2.38;;;1.27;;
16159;SDS011;8185;57.818;15.224;2023-08-30T11:27:16;4.35;;;1.20;;
16159;SDS011;8185;57.818;15.224;2023-08-30T11:29:44;2.88;;;1.10;;
16159;SDS011;8185;57.818;15.224;2023-08-30T11:32:11;3.08;;;1.10;;
16159;SDS011;8185;57.818;15.224;2023-08-30T11:34:39;4.65;;;1.50;;
16159;SDS011;8185;57.818;15.224;2023-08-30T11:37:06;1.98;;;1.08;;
16159;SDS011;8185;57.818;15.224;2023-08-30T11:39:36;3.58;;;1.38;;
16159;SDS011;8185;57.818;15.224;2023-08-30T11:42:04;3.72;;;1.20;;
16159;SDS011;8185;57.818;15.224;2023-08-30T11:44:32;3.85;;;1.10;;
16159;SDS011;8185;57.818;15.224;2023-08-30T11:46:59;3.13;;;1.40;;
16159;SDS011;8185;57.818;15.224;2023-08-30T11:49:27;2.03;;;1.08;;
16159;SDS011;8185;57.818;15.224;2023-08-30T11:51:55;3.35;;;1.10;;
16159;SDS011;8185;57.818;15.224;2023-08-30T11:54:23;2.55;;;1.05;;
16159;SDS011;8185;57.818;15.224;2023-08-30T11:56:52;2.17;;;1.20;;
16159;SDS011;8185;57.818;15.224;2023-08-30T11:59:21;3.90;;;1.30;;
16159;SDS011;8185;57.818;15.224;2023-08-30T12:01:48;3.28;;;1.17;;
16159;SDS011;8185;57.818;15.224;2023-08-30T12:04:16;2.20;;;1.10;;
16159;SDS011;8185;57.818;15.224;2023-08-30T12:06:44;1.92;;;0.98;;
16159;SDS011;8185;57.818;15.224;2023-08-30T12:09:18;1.92;;;1.02;;
16159;SDS011;8185;57.818;15.224;2023-08-30T12:11:47;1.98;;;1.08;;
16159;SDS011;8185;57.818;15.224;2023-08-30T12:14:16;1.95;;;1.10;;
16159;SDS011;8185;57.818;15.224;2023-08-30T12:16:43;4.07;;;1.23;;
16159;SDS011;8185;57.818;15.224;2023-08-30T12:19:12;4.63;;;1.00;;
16159;SDS011;8185;57.818;15.224;2023-08-30T12:21:40;2.30;;;0.90;;
16159;SDS011;8185;57.818;15.224;2023-08-30T12:24:08;3.70;;;1.17;;
16159;SDS011;8185;57.818;15.224;2023-08-30T12:26:35;4.10;;;1.02;;
16159;SDS011;8185;57.818;15.224;2023-08-30T12:29:04;2.35;;;1.00;;
16159;SDS011;8185;57.818;15.224;2023-08-30T12:31:33;5.10;;;1.08;;
16159;SDS011;8185;57.818;15.224;2023-08-30T12:34:00;2.95;;;1.10;;
16159;SDS011;8185;57.818;15.224;2023-08-30T12:36:27;2.50;;;0.98;;
16159;SDS011;8185;57.818;15.224;2023-08-30T12:38:54;1.80;;;1.08;;
16159;SDS011;8185;57.818;15.224;2023-08-30T12:41:22;3.45;;;1.17;;
16159;SDS011;8185;57.818;15.224;2023-08-30T12:43:49;1.58;;;0.93;;
16159;SDS011;8185;57.818;15.224;2023-08-30T12:46:16;1.90;;;1.05;;
16159;SDS011;8185;57.818;15.224;2023-08-30T12:48:45;3.13;;;1.13;;
16159;SDS011;8185;57.818;15.224;2023-08-30T12:51:12;1.50;;;1.00;;
16159;SDS011;8185;57.818;15.224;2023-08-30T12:53:40;1.90;;;1.00;;
16159;SDS011;8185;57.818;15.224;2023-08-30T12:56:07;2.33;;;0.85;;
16159;SDS011;8185;57.818;15.224;2023-08-30T12:58:35;3.20;;;1.20;;
16159;SDS011;8185;57.818;15.224;2023-08-30T13:01:02;3.85;;;1.00;;
16159;SDS011;8185;57.818;15.224;2023-08-30T13:03:30;2.40;;;0.93;;
16159;SDS011;8185;57.818;15.224;2023-08-30T13:05:58;1.20;;;0.80;;
16159;SDS011;8185;57.818;15.224;2023-08-30T13:08:27;1.50;;;0.95;;
16159;SDS011;8185;57.818;15.224;2023-08-30T13:10:54;2.17;;;0.90;;
16159;SDS011;8185;57.818;15.224;2023-08-30T13:13:21;2.50;;;1.00;;
16159;SDS011;8185;57.818;15.224;2023-08-30T13:15:48;2.28;;;1.00;;
16159;SDS011;8185;57.818;15.224;2023-08-30T13:18:15;1.13;;;0.95;;
16159;SDS011;8185;57.818;15.224;2023-08-30T13:20:43;1.23;;;1.10;;
16159;SDS011;8185;57.818;15.224;2023-08-30T13:23:11;2.58;;;1.15;;
16159;SDS011;8185;57.818;15.224;2023-08-30T13:25:39;2.53;;;0.90;;
16159;SDS011;8185;57.818;15.224;2023-08-30T13:28:06;3.20;;;0.90;;
16159;SDS011;8185;57.818;15.224;2023-08-30T13:30:34;2.33;;;1.10;;
16159;SDS011;8185;57.818;15.224;2023-08-30T13:33:01;3.90;;;1.20;;
16159;SDS011;8185;57.818;15.224;2023-08-30T13:35:28;2.08;;;1.00;;
16159;SDS011;8185;57.818;15.224;2023-08-30T13:37:55;1.45;;;0.85;;
16159;SDS011;8185;57.818;15.224;2023-08-30T13:40:24;1.48;;;0.80;;
16159;SDS011;8185;57.818;15.224;2023-08-30T13:42:52;1.52;;;0.93;;
16159;SDS011;8185;57.818;15.224;2023-08-30T13:45:19;2.33;;;1.00;;
16159;SDS011;8185;57.818;15.224;2023-08-30T13:47:46;2.80;;;0.88;;
16159;SDS011;8185;57.818;15.224;2023-08-30T13:50:16;1.73;;;0.80;;
16159;SDS011;8185;57.818;15.224;2023-08-30T13:52:44;2.22;;;1.10;;
16159;SDS011;8185;57.818;15.224;2023-08-30T13:55:11;3.65;;;1.20;;
16159;SDS011;8185;57.818;15.224;2023-08-30T13:57:40;2.35;;;1.10;;
16159;SDS011;8185;57.818;15.224;2023-08-30T14:00:07;1.45;;;0.82;;
16159;SDS011;8185;57.818;15.224;2023-08-30T14:02:35;1.88;;;0.90;;
16159;SDS011;8185;57.818;15.224;2023-08-30T14:05:03;4.13;;;0.90;;
16159;SDS011;8185;57.818;15.224;2023-08-30T14:07:31;2.05;;;0.90;;
16159;SDS011;8185;57.818;15.224;2023-08-30T14:09:58;4.20;;;1.10;;
16159;SDS011;8185;57.818;15.224;2023-08-30T14:12:25;1.75;;;0.80;;
16159;SDS011;8185;57.818;15.224;2023-08-30T14:14:54;3.45;;;0.85;;
16159;SDS011;8185;57.818;15.224;2023-08-30T14:17:21;1.70;;;1.00;;
16159;SDS011;8185;57.818;15.224;2023-08-30T14:19:48;1.27;;;0.80;;
16159;SDS011;8185;57.818;15.224;2023-08-30T14:22:16;3.10;;;1.15;;
16159;SDS011;8185;57.818;15.224;2023-08-30T14:24:45;1.67;;;0.95;;
16159;SDS011;8185;57.818;15.224;2023-08-30T14:27:13;2.38;;;1.05;;
16159;SDS011;8185;57.818;15.224;2023-08-30T14:29:40;3.13;;;1.25;;
16159;SDS011;8185;57.818;15.224;2023-08-30T14:32:08;3.17;;;0.90;;
16159;SDS011;8185;57.818;15.224;2023-08-30T14:34:35;1.65;;;1.00;;
16159;SDS011;8185;57.818;15.224;2023-08-30T14:37:03;1.20;;;0.80;;
16159;SDS011;8185;57.818;15.224;2023-08-30T14:39:30;4.10;;;0.80;;
16159;SDS011;8185;57.818;15.224;2023-08-30T14:41:57;1.42;;;0.93;;
16159;SDS011;8185;57.818;15.224;2023-08-30T14:44:24;2.15;;;0.75;;
16159;SDS011;8185;57.818;15.224;2023-08-30T14:46:53;3.58;;;0.90;;
16159;SDS011;8185;57.818;15.224;2023-08-30T14:49:21;1.83;;;0.80;;
16159;SDS011;8185;57.818;15.224;2023-08-30T14:51:48;2.20;;;0.68;;
16159;SDS011;8185;57.818;15.224;2023-08-30T14:54:16;1.48;;;0.68;;